Time;durP1;ratioP1;P1;durP2;ratioP2;P2;SDS_P1;SDS_P2;PMS_P1;PMS_P2;Temp;Humidity;BMP_temperature;BMP_pressure;BME280_temperature;BME280_humidity;BME280_pressure;Samples;Min_cycle;Max_cycle;Signal;HPM_P1;HPM_P2
2022/03/30 03:01:28;;;;;;;30.10;13.23;;;5.70;99.90;;;;;;5452037;23;20112;-82
2022/03/30 03:03:54;;;;;;;34.63;12.55;;;5.70;99.90;;;;;;4901050;29;20036;-81
2022/03/30 03:06:19;;;;;;;32.17;12.88;;;5.70;99.90;;;;;;4917211;29;20096;-82
2022/03/30 03:08:45;;;;;;;35.72;13.23;;;5.60;99.90;;;;;;4917698;29;20552;-83
2022/03/30 03:11:10;;;;;;;38.05;12.70;;;5.60;99.90;;;;;;4915452;29;20491;-82
2022/03/30 03:13:36;;;;;;;28.13;13.05;;;5.50;99.90;;;;;;4899355;29;20041;-83
2022/03/30 03:16:02;;;;;;;29.38;13.43;;;5.50;99.90;;;;;;4899895;29;20049;-83
2022/03/30 03:18:28;;;;;;;42.97;15.23;;;5.40;99.90;;;;;;4899902;29;20128;-82
2022/03/30 03:20:53;;;;;;;35.85;14.52;;;5.40;99.90;;;;;;4884240;29;20083;-82
2022/03/30 03:23:19;;;;;;;33.42;13.85;;;5.40;99.90;;;;;;4898616;29;20036;-83
2022/03/30 03:25:46;;;;;;;31.95;14.05;;;5.50;99.90;;;;;;4898422;29;20044;-83
2022/03/30 03:28:13;;;;;;;31.55;13.13;;;5.50;99.90;;;;;;4897812;29;20173;-83
2022/03/30 03:30:40;;;;;;;35.20;12.93;;;5.50;99.90;;;;;;4899239;29;20048;-83
2022/03/30 03:33:07;;;;;;;34.88;15.00;;;5.50;99.90;;;;;;4897828;29;20056;-83
2022/03/30 03:35:33;;;;;;;38.53;14.52;;;5.50;99.90;;;;;;4882707;29;20433;-84
2022/03/30 03:38:00;;;;;;;45.92;15.07;;;5.60;99.90;;;;;;4898254;29;20088;-82
2022/03/30 03:40:27;;;;;;;33.25;14.65;;;5.60;99.90;;;;;;4899481;29;20045;-83
2022/03/30 03:42:53;;;;;;;31.55;12.48;;;5.50;99.90;;;;;;4898392;29;20123;-83
2022/03/30 03:45:19;;;;;;;37.40;14.90;;;5.50;99.90;;;;;;4899659;29;20045;-83
2022/03/30 03:47:46;;;;;;;37.33;14.65;;;5.60;99.90;;;;;;4898442;29;20044;-83
2022/03/30 03:50:12;;;;;;;35.78;14.85;;;5.60;99.90;;;;;;4898132;29;20048;-82
2022/03/30 03:52:38;;;;;;;35.92;13.85;;;5.60;99.90;;;;;;4898047;29;20047;-82
2022/03/30 03:55:04;;;;;;;31.80;14.68;;;5.60;99.90;;;;;;4899445;29;20032;-81
2022/03/30 03:57:32;;;;;;;36.38;13.52;;;5.70;99.90;;;;;;4898074;29;20040;-80
2022/03/30 03:59:58;;;;;;;35.50;14.55;;;5.70;99.90;;;;;;4897777;29;20100;-81
2022/03/30 04:02:23;;;;;;;40.35;15.45;;;5.80;99.90;;;;;;4897818;29;20115;-81
2022/03/30 04:04:49;;;;;;;37.45;16.00;;;5.80;99.90;;;;;;4898061;29;20462;-83
2022/03/30 04:07:15;;;;;;;36.72;15.15;;;5.80;99.90;;;;;;4884728;29;20067;-83
2022/03/30 04:09:40;;;;;;;40.70;15.52;;;5.80;99.90;;;;;;4901101;29;20047;-82
2022/03/30 04:12:07;;;;;;;43.30;14.48;;;5.80;99.90;;;;;;4901113;29;20041;-83
2022/03/30 04:14:32;;;;;;;39.55;14.48;;;5.80;99.90;;;;;;4902824;29;20415;-81
2022/03/30 04:16:58;;;;;;;32.67;14.20;;;5.80;99.90;;;;;;4902225;29;20039;-81
2022/03/30 04:19:25;;;;;;;36.42;15.85;;;5.80;99.90;;;;;;4901273;29;20386;-81
2022/03/30 04:21:51;;;;;;;38.92;14.32;;;5.80;99.90;;;;;;4900468;29;20540;-81
2022/03/30 04:24:16;;;;;;;37.65;15.15;;;5.90;99.90;;;;;;4900741;29;20036;-81
2022/03/30 04:26:42;;;;;;;40.72;14.57;;;5.90;99.90;;;;;;4902609;29;20119;-82
2022/03/30 04:29:07;;;;;;;38.70;14.65;;;5.90;99.90;;;;;;4900998;29;20096;-81
2022/03/30 04:31:33;;;;;;;38.70;14.30;;;5.90;99.90;;;;;;4900856;29;20055;-81
2022/03/30 04:33:59;;;;;;;30.55;13.48;;;5.90;99.90;;;;;;4885107;29;20548;-82
2022/03/30 04:36:25;;;;;;;34.08;12.50;;;5.90;99.90;;;;;;4900941;29;20047;-82
2022/03/30 04:38:51;;;;;;;26.00;11.55;;;5.90;99.90;;;;;;4884955;29;20399;-82
2022/03/30 04:41:17;;;;;;;26.63;11.27;;;5.90;99.90;;;;;;4900695;29;20089;-83
2022/03/30 04:43:42;;;;;;;32.88;11.80;;;5.80;99.90;;;;;;4902255;29;20137;-83
2022/03/30 04:46:08;;;;;;;34.05;13.63;;;5.80;99.90;;;;;;4900302;29;20096;-82
2022/03/30 04:48:35;;;;;;;22.77;8.30;;;5.90;99.90;;;;;;4885052;29;20047;-82
2022/03/30 04:51:01;;;;;;;17.75;7.10;;;5.90;99.90;;;;;;4900797;29;20044;-83
2022/03/30 04:53:27;;;;;;;10.55;4.70;;;5.80;99.90;;;;;;4900859;29;20076;-82
2022/03/30 04:55:52;;;;;;;8.00;3.45;;;5.90;99.90;;;;;;4901806;29;20036;-82
2022/03/30 04:58:18;;;;;;;6.63;3.10;;;5.80;99.90;;;;;;4901867;29;20499;-82
2022/03/30 05:00:43;;;;;;;4.32;1.75;;;5.80;99.90;;;;;;4901305;29;20446;-82
2022/03/30 05:03:09;;;;;;;7.90;1.20;;;5.90;99.90;;;;;;4900611;29;20048;-83
2022/03/30 05:05:35;;;;;;;2.75;0.88;;;5.90;99.90;;;;;;4901693;29;20076;-82
2022/03/30 05:08:01;;;;;;;2.90;0.80;;;5.90;99.90;;;;;;4901534;29;20091;-81
2022/03/30 05:10:27;;;;;;;1.65;0.60;;;5.90;99.90;;;;;;4900144;29;20052;-81
2022/03/30 05:12:54;;;;;;;2.35;0.57;;;5.80;99.90;;;;;;4900256;29;20047;-81
2022/03/30 05:15:19;;;;;;;1.92;0.77;;;5.80;99.90;;;;;;4900377;29;20096;-83
2022/03/30 05:17:46;;;;;;;1.95;0.63;;;5.90;99.90;;;;;;4900920;29;20036;-82
2022/03/30 05:20:17;;;;;;;3.35;0.60;;;5.80;99.90;;;;;;4899944;29;20548;-81
2022/03/30 05:22:44;;;;;;;4.43;0.70;;;5.90;99.90;;;;;;4899658;29;20485;-82
2022/03/30 05:25:11;;;;;;;2.63;0.82;;;5.80;99.90;;;;;;4902303;29;20072;-80
2022/03/30 05:27:38;;;;;;;2.20;0.60;;;5.80;99.90;;;;;;4885239;29;20077;-82
2022/03/30 05:30:08;;;;;;;0.98;0.60;;;5.80;99.90;;;;;;4899515;29;20045;-84
2022/03/30 05:32:36;;;;;;;1.73;0.68;;;5.80;99.90;;;;;;4899644;29;20068;-80
2022/03/30 05:35:04;;;;;;;3.45;0.73;;;5.80;99.90;;;;;;4901554;29;20132;-82
2022/03/30 05:37:31;;;;;;;2.65;0.60;;;5.80;99.90;;;;;;4899777;29;20458;-82
2022/03/30 05:39:57;;;;;;;4.55;0.90;;;5.80;99.90;;;;;;4899970;29;20072;-83
2022/03/30 05:42:22;;;;;;;1.55;0.70;;;5.70;99.90;;;;;;4899814;29;20457;-85
2022/03/30 05:44:49;;;;;;;2.20;0.80;;;5.70;99.90;;;;;;4884624;29;20040;-86
2022/03/30 05:47:16;;;;;;;2.40;0.70;;;5.70;99.90;;;;;;4899968;29;20450;-83
2022/03/30 05:49:41;;;;;;;2.28;0.75;;;5.70;99.90;;;;;;4900298;29;20466;-84
2022/03/30 05:52:08;;;;;;;1.58;0.77;;;5.70;99.90;;;;;;4899297;29;20051;-84
2022/03/30 05:54:34;;;;;;;4.53;0.90;;;5.70;99.90;;;;;;4899461;29;20112;-83
2022/03/30 05:57:00;;;;;;;2.63;1.25;;;5.70;99.90;;;;;;4883831;29;20052;-82
2022/03/30 05:59:27;;;;;;;3.67;0.82;;;5.80;99.90;;;;;;4900877;29;20059;-84
2022/03/30 06:01:52;;;;;;;6.40;0.82;;;5.70;99.90;;;;;;4900319;29;20052;-81
2022/03/30 06:04:18;;;;;;;2.83;0.70;;;5.80;99.90;;;;;;4898718;29;20044;-86
2022/03/30 06:06:44;;;;;;;2.35;0.98;;;5.70;99.90;;;;;;4883627;29;20131;-83
2022/03/30 06:09:09;;;;;;;3.88;1.00;;;5.70;99.90;;;;;;4898388;29;20508;-83
2022/03/30 06:11:35;;;;;;;4.28;0.80;;;5.80;99.90;;;;;;4898542;29;20045;-82
2022/03/30 06:14:01;;;;;;;5.10;1.67;;;5.70;99.90;;;;;;4899803;29;20044;-84
2022/03/30 06:16:27;;;;;;;2.80;1.00;;;5.70;99.90;;;;;;4900226;29;20044;-83
2022/03/30 06:18:53;;;;;;;3.20;0.85;;;5.70;99.90;;;;;;4901756;29;20464;-83
2022/03/30 06:21:20;;;;;;;4.22;1.00;;;5.70;99.90;;;;;;4899310;29;20080;-85
2022/03/30 06:23:45;;;;;;;5.78;1.20;;;5.70;99.90;;;;;;4899482;29;20063;-83
2022/03/30 06:26:11;;;;;;;3.88;0.90;;;5.70;99.90;;;;;;4899223;29;20497;-85
2022/03/30 06:28:37;;;;;;;4.93;1.15;;;5.70;99.90;;;;;;4900599;29;20485;-85
2022/03/30 06:31:03;;;;;;;3.53;1.10;;;5.70;99.90;;;;;;4882857;29;20500;-84
2022/03/30 06:33:29;;;;;;;3.83;1.20;;;5.80;99.90;;;;;;4899652;29;20048;-85
2022/03/30 06:35:54;;;;;;;3.97;1.08;;;5.80;99.90;;;;;;4899304;29;20048;-83
2022/03/30 06:38:20;;;;;;;3.60;1.00;;;5.80;99.90;;;;;;4898910;29;20044;-82
2022/03/30 06:40:47;;;;;;;2.38;1.20;;;5.90;99.90;;;;;;4899421;29;20045;-83
2022/03/30 06:43:14;;;;;;;5.88;0.90;;;5.90;99.90;;;;;;4899060;29;20051;-83
2022/03/30 06:45:40;;;;;;;3.80;1.27;;;5.90;99.90;;;;;;4899677;29;20504;-83
2022/03/30 06:48:06;;;;;;;3.13;1.20;;;5.90;99.90;;;;;;4900852;29;20040;-85
2022/03/30 06:50:32;;;;;;;2.90;1.15;;;6.00;99.90;;;;;;4898682;29;20091;-82
2022/03/30 06:53:02;;;;;;;2.55;1.10;;;6.00;99.90;;;;;;4899203;29;20052;-83
2022/03/30 06:55:29;;;;;;;2.30;1.00;;;6.00;99.90;;;;;;4899375;29;20052;-84
2022/03/30 06:57:54;;;;;;;3.72;1.17;;;6.00;99.90;;;;;;4899171;29;20057;-82
2022/03/30 07:00:20;;;;;;;2.85;1.05;;;6.10;99.90;;;;;;4903472;29;20048;-82
2022/03/30 07:02:45;;;;;;;5.70;1.63;;;6.10;99.90;;;;;;4905844;29;20446;-85
2022/03/30 07:05:11;;;;;;;4.65;1.52;;;6.20;99.90;;;;;;4907111;29;20044;-84
2022/03/30 07:10:23;;;;;;;4.78;1.50;;;6.20;99.90;;;;;;4904860;29;20052;-85
2022/03/30 07:12:50;;;;;;;3.47;1.17;;;6.20;99.90;;;;;;4899956;29;20111;-84
2022/03/30 07:15:18;;;;;;;3.90;1.30;;;6.30;99.90;;;;;;4899956;29;20058;-85
2022/03/30 07:17:49;;;;;;;3.20;1.10;;;6.30;99.90;;;;;;4900501;29;20493;-85
2022/03/30 07:20:16;;;;;;;3.80;1.20;;;6.30;99.90;;;;;;4901124;29;20056;-85
2022/03/30 07:22:43;;;;;;;4.80;1.17;;;6.40;99.90;;;;;;4899206;29;20076;-82
2022/03/30 07:25:10;;;;;;;9.95;2.58;;;6.50;99.90;;;;;;4899776;29;20072;-83
2022/03/30 07:27:45;;;;;;;4.28;1.45;;;6.50;99.90;;;;;;4898619;29;20120;-83
2022/03/30 07:30:12;;;;;;;3.20;1.50;;;6.60;99.90;;;;;;4898530;29;20053;-83
2022/03/30 07:32:40;;;;;;;2.53;1.30;;;6.70;99.90;;;;;;4898707;29;20048;-82
2022/03/30 07:35:07;;;;;;;3.72;1.33;;;6.80;99.90;;;;;;4898684;29;20055;-81
2022/03/30 07:37:33;;;;;;;5.47;1.33;;;6.80;99.90;;;;;;4882306;29;20092;-82
2022/03/30 07:40:00;;;;;;;3.95;1.50;;;6.90;99.90;;;;;;4898688;29;20056;-84
2022/03/30 07:42:26;;;;;;;5.10;1.27;;;6.90;99.90;;;;;;4901591;29;20053;-83
2022/03/30 07:44:52;;;;;;;3.33;1.50;;;7.00;99.90;;;;;;4902334;29;20048;-84
2022/03/30 07:47:17;;;;;;;8.55;2.08;;;7.00;99.90;;;;;;4903654;29;20060;-82
2022/03/30 07:49:43;;;;;;;4.22;1.55;;;7.00;99.90;;;;;;4886708;29;20044;-85
2022/03/30 07:52:09;;;;;;;9.45;2.20;;;7.10;99.90;;;;;;4886755;29;20044;-83
2022/03/30 07:54:35;;;;;;;4.75;1.42;;;7.10;99.90;;;;;;4902013;29;20489;-83
2022/03/30 07:57:01;;;;;;;3.60;1.30;;;7.20;99.90;;;;;;4903670;29;20047;-84
2022/03/30 07:59:26;;;;;;;6.50;1.52;;;7.30;99.90;;;;;;4901869;29;20105;-83
2022/03/30 08:01:54;;;;;;;3.47;1.48;;;7.30;99.90;;;;;;4901430;29;20051;-83
2022/03/30 08:04:20;;;;;;;5.60;1.30;;;7.40;99.90;;;;;;4901995;29;20119;-84
2022/03/30 08:06:47;;;;;;;3.25;1.17;;;7.40;99.90;;;;;;4902311;29;20048;-85
2022/03/30 08:09:12;;;;;;;5.05;1.35;;;7.40;99.90;;;;;;4902101;29;20049;-84
2022/03/30 08:11:38;;;;;;;3.72;1.50;;;7.50;99.90;;;;;;4902144;29;20103;-85
2022/03/30 08:14:04;;;;;;;8.88;1.50;;;7.50;99.90;;;;;;4902106;29;20040;-84
2022/03/30 08:16:32;;;;;;;5.10;1.50;;;7.60;99.90;;;;;;4901622;29;20091;-85
2022/03/30 08:18:58;;;;;;;6.13;1.25;;;7.60;99.90;;;;;;4901121;29;20096;-84
2022/03/30 08:24:08;;;;;;;4.03;1.30;;;7.70;99.90;;;;;;4901012;29;20044;-82
2022/03/30 08:26:34;;;;;;;6.60;1.75;;;7.80;99.90;;;;;;4903087;29;20393;-83
2022/03/30 08:29:00;;;;;;;2.92;1.20;;;7.90;99.90;;;;;;4901317;29;20044;-83
2022/03/30 08:31:26;;;;;;;7.20;1.30;;;7.90;99.90;;;;;;4901255;29;20052;-84
2022/03/30 08:33:52;;;;;;;5.72;1.48;;;8.00;99.90;;;;;;4901624;29;20052;-85
2022/03/30 08:36:19;;;;;;;5.28;1.13;;;8.00;99.90;;;;;;4901764;29;20066;-84
2022/03/30 08:38:45;;;;;;;6.45;1.40;;;8.00;99.90;;;;;;4886095;29;20049;-84
2022/03/30 08:41:11;;;;;;;5.03;1.45;;;8.00;99.90;;;;;;4901602;29;20033;-84
2022/03/30 08:43:39;;;;;;;6.25;1.40;;;8.10;99.90;;;;;;4901805;29;20125;-84
2022/03/30 08:46:04;;;;;;;2.95;1.20;;;8.20;99.90;;;;;;4901801;29;20040;-83
2022/03/30 08:48:30;;;;;;;7.60;1.83;;;8.40;99.90;;;;;;4885065;29;20129;-85
2022/03/30 08:50:58;;;;;;;3.75;1.60;;;8.40;99.90;;;;;;4901288;29;20053;-84
2022/03/30 08:53:26;;;;;;;5.05;1.40;;;8.40;99.90;;;;;;4900100;29;20147;-85
2022/03/30 08:55:52;;;;;;;4.80;1.63;;;8.50;99.90;;;;;;4900934;29;20055;-84
2022/03/30 08:58:18;;;;;;;4.13;1.00;;;8.60;99.90;;;;;;4900888;29;20048;-85
2022/03/30 09:00:43;;;;;;;5.10;1.00;;;8.50;99.90;;;;;;4900907;29;20127;-84
2022/03/30 09:03:13;;;;;;;7.32;1.30;;;8.50;99.90;;;;;;4900900;29;20056;-85
2022/03/30 09:05:38;;;;;;;4.97;1.00;;;8.50;99.90;;;;;;4902182;29;20041;-84
2022/03/30 09:08:09;;;;;;;6.05;1.23;;;8.60;99.90;;;;;;4885442;29;20048;-84
2022/03/30 09:10:36;;;;;;;4.60;1.33;;;8.60;99.90;;;;;;4885494;29;20485;-86
2022/03/30 09:13:04;;;;;;;5.30;1.10;;;8.70;99.90;;;;;;4900886;29;20044;-83
2022/03/30 09:15:32;;;;;;;6.28;1.23;;;8.70;99.90;;;;;;4900935;29;20079;-83
2022/03/30 09:17:59;;;;;;;3.60;0.80;;;8.80;99.90;;;;;;4900458;29;20438;-85
2022/03/30 09:20:25;;;;;;;5.25;1.45;;;8.80;99.90;;;;;;4900667;29;20076;-84
2022/03/30 09:22:56;;;;;;;5.10;1.15;;;8.90;99.90;;;;;;4900249;29;20073;-85
2022/03/30 09:25:30;;;;;;;5.05;0.90;;;9.00;99.90;;;;;;4900440;29;20074;-85
2022/03/30 09:27:58;;;;;;;6.43;1.25;;;9.00;99.90;;;;;;4885163;29;20079;-84
2022/03/30 09:30:25;;;;;;;6.10;1.25;;;9.10;99.90;;;;;;4902138;29;20037;-85
2022/03/30 09:32:56;;;;;;;7.15;1.10;;;9.10;99.90;;;;;;4900751;29;20096;-85
2022/03/30 09:35:25;;;;;;;10.15;1.23;;;9.20;99.90;;;;;;4900704;29;20072;-85
2022/03/30 09:38:08;;;;;;;3.17;1.15;;;9.20;99.90;;;;;;4900299;29;20052;-86
2022/03/30 09:40:48;;;;;;;4.53;1.55;;;9.20;99.90;;;;;;4900110;29;20044;-84
2022/03/30 09:43:20;;;;;;;4.95;1.10;;;9.30;99.90;;;;;;4884830;29;20116;-84
2022/03/30 09:45:48;;;;;;;4.97;1.05;;;9.20;99.90;;;;;;4900909;29;20047;-85
2022/03/30 09:48:17;;;;;;;5.45;0.80;;;9.10;99.90;;;;;;4899899;29;20055;-84
2022/03/30 09:50:49;;;;;;;2.63;0.85;;;9.10;99.90;;;;;;4899951;29;20128;-85
2022/03/30 09:53:17;;;;;;;5.68;1.20;;;9.20;99.90;;;;;;4899877;29;20052;-84
2022/03/30 09:56:05;;;;;;;6.50;1.00;;;9.30;99.90;;;;;;4901481;29;20044;-84
2022/03/30 09:58:34;;;;;;;5.72;1.05;;;9.30;99.90;;;;;;4900084;29;20100;-85
2022/03/30 10:01:13;;;;;;;4.65;1.00;;;9.40;99.90;;;;;;4899751;29;20508;-84
2022/03/30 10:03:48;;;;;;;4.57;1.50;;;9.50;99.90;;;;;;4899634;29;20079;-84
2022/03/30 10:06:16;;;;;;;;;;;9.70;99.90;;;;;;4884817;29;20037;-87
2022/03/30 10:08:43;;;;;;;5.65;1.00;;;9.90;99.90;;;;;;4884193;29;20432;-85
2022/03/30 10:11:12;;;;;;;5.15;1.10;;;10.00;99.90;;;;;;4884300;29;20457;-86
2022/03/30 10:13:38;;;;;;;3.35;0.80;;;10.10;99.90;;;;;;4900964;29;20449;-86
2022/03/30 10:16:08;;;;;;;7.47;1.00;;;10.20;99.90;;;;;;4899870;29;20049;-83
2022/03/30 10:18:35;;;;;;;3.13;0.95;;;10.30;99.90;;;;;;4900626;29;20044;-83
2022/03/30 10:21:26;;;;;;;3.92;0.82;;;10.40;99.90;;;;;;4900972;29;20176;-85
2022/03/30 10:23:57;;;;;;;4.40;1.02;;;10.50;99.90;;;;;;4899680;29;20068;-85
2022/03/30 10:26:50;;;;;;;3.17;0.98;;;10.50;99.90;;;;;;4899828;29;20096;-85
2022/03/30 10:29:18;;;;;;;6.25;1.10;;;10.50;99.90;;;;;;4899194;29;20462;-84
2022/03/30 10:32:17;;;;;;;4.88;0.90;;;10.50;99.90;;;;;;4898982;29;20053;-85
2022/03/30 10:34:59;;;;;;;3.65;0.80;;;10.40;99.90;;;;;;4900985;29;20049;-86
2022/03/30 10:37:28;;;;;;;5.43;1.00;;;10.40;99.90;;;;;;4899224;29;20127;-84
2022/03/30 10:40:07;;;;;;;2.55;0.75;;;10.40;99.90;;;;;;4899787;29;20112;-86
2022/03/30 10:42:49;;;;;;;2.80;0.90;;;10.30;99.90;;;;;;4898732;29;20104;-86
2022/03/30 10:45:40;;;;;;;4.45;0.85;;;10.20;99.90;;;;;;4883510;29;20495;-86
2022/03/30 10:48:07;;;;;;;4.43;1.00;;;10.10;99.90;;;;;;4899600;29;20063;-87
2022/03/30 10:50:34;;;;;;;3.30;0.77;;;10.00;99.90;;;;;;4899448;29;20044;-87
2022/03/30 10:53:00;;;;;;;2.65;0.98;;;10.00;99.90;;;;;;4899094;29;20052;-86
2022/03/30 10:55:26;;;;;;;3.88;0.80;;;10.10;99.90;;;;;;4898545;29;20505;-86
2022/03/30 10:58:04;;;;;;;3.15;0.90;;;10.20;99.90;;;;;;4883694;29;20454;-85
2022/03/30 11:00:34;;;;;;;2.70;0.80;;;10.30;99.90;;;;;;4898762;29;20545;-86
2022/03/30 11:03:10;;;;;;;3.90;0.80;;;10.40;99.90;;;;;;4899543;29;20429;-85
2022/03/30 11:05:37;;;;;;;2.75;0.80;;;10.50;99.90;;;;;;4898746;29;20126;-85
2022/03/30 11:08:05;;;;;;;3.65;0.80;;;10.40;99.90;;;;;;4883958;29;20037;-87
2022/03/30 11:10:45;;;;;;;3.85;1.02;;;10.40;99.90;;;;;;4899400;29;20495;-86
2022/03/30 11:13:11;;;;;;;3.20;0.88;;;10.40;99.90;;;;;;4900393;29;20383;-86
2022/03/30 11:15:59;;;;;;;2.60;0.90;;;10.40;99.90;;;;;;4901174;29;20089;-85
2022/03/30 11:18:27;;;;;;;5.05;1.30;;;10.50;99.90;;;;;;4903126;29;20059;-85
2022/03/30 11:21:20;;;;;;;3.35;0.70;;;10.50;99.90;;;;;;4903301;29;20052;-85
2022/03/30 11:24:09;;;;;;;2.33;0.70;;;10.60;99.90;;;;;;4903930;29;20385;-85
2022/03/30 11:26:50;;;;;;;2.42;0.73;;;10.80;99.90;;;;;;4903425;29;20095;-85
2022/03/30 11:29:52;;;;;;;4.22;0.70;;;11.00;99.90;;;;;;4902888;29;20056;-86
2022/03/30 11:32:32;;;;;;;4.95;0.88;;;11.10;99.90;;;;;;4902719;29;20041;-87
2022/03/30 11:35:01;;;;;;;3.33;0.70;;;11.20;99.90;;;;;;4902729;29;20048;-85
2022/03/30 11:37:28;;;;;;;3.75;0.88;;;11.30;99.90;;;;;;4904071;29;20131;-85
2022/03/30 11:40:25;;;;;;;3.75;0.73;;;11.20;99.90;;;;;;4911740;29;20056;-86
2022/03/30 11:42:52;;;;;;;2.50;0.70;;;11.10;99.90;;;;;;4901781;29;20116;-85
2022/03/30 11:45:20;;;;;;;6.57;0.90;;;10.90;99.90;;;;;;4922197;29;20040;-85
2022/03/30 11:47:51;;;;;;;3.80;0.82;;;10.90;99.90;;;;;;4922337;29;20028;-85
2022/03/30 11:50:24;;;;;;;3.45;0.82;;;11.00;99.90;;;;;;4904172;29;20044;-86
2022/03/30 11:53:01;;;;;;;4.97;0.80;;;11.20;99.90;;;;;;4887298;29;20072;-85
2022/03/30 11:55:31;;;;;;;2.33;0.70;;;11.40;99.90;;;;;;4903084;29;20036;-86
2022/03/30 11:57:58;;;;;;;3.85;0.77;;;11.60;99.90;;;;;;4887227;29;20074;-85
2022/03/30 12:00:26;;;;;;;1.50;0.70;;;11.70;99.90;;;;;;4902286;29;20123;-85
2022/03/30 12:02:56;;;;;;;3.60;0.77;;;11.70;99.90;;;;;;4902471;29;20048;-85
2022/03/30 12:05:22;;;;;;;2.33;0.85;;;11.70;99.90;;;;;;4902208;29;20063;-85
2022/03/30 12:07:55;;;;;;;5.25;1.10;;;11.60;99.90;;;;;;4902701;29;20045;-86
2022/03/30 12:10:31;;;;;;;3.60;0.63;;;11.70;99.90;;;;;;4902091;29;20052;-86
2022/03/30 12:12:57;;;;;;;;;;;11.90;99.90;;;;;;4903011;29;20032;-85
2022/03/30 12:15:23;;;;;;;4.57;1.33;;;12.00;99.90;;;;;;4902263;29;20277;-84
2022/03/30 12:17:51;;;;;;;2.65;0.75;;;12.10;99.90;;;;;;4885722;29;20185;-86
2022/03/30 12:20:24;;;;;;;3.55;0.80;;;11.90;99.90;;;;;;4904179;29;20032;-85
2022/03/30 12:22:58;;;;;;;3.67;1.42;;;11.70;99.90;;;;;;4902095;29;20393;-85
2022/03/30 12:25:29;;;;;;;3.22;1.08;;;11.50;99.90;;;;;;4902156;29;20112;-84
2022/03/30 12:27:56;;;;;;;4.00;0.90;;;11.50;99.90;;;;;;4901852;29;20088;-84
2022/03/30 12:30:22;;;;;;;5.90;1.10;;;11.40;99.90;;;;;;4901578;29;20051;-84
2022/03/30 12:32:48;;;;;;;5.03;0.80;;;11.40;99.90;;;;;;4901537;29;20461;-87
2022/03/30 12:35:16;;;;;;;4.18;1.00;;;11.30;99.90;;;;;;4901951;29;20067;-85
2022/03/30 12:37:46;;;;;;;2.65;1.00;;;11.30;99.90;;;;;;4901694;29;20076;-85
2022/03/30 12:40:21;;;;;;;3.58;0.93;;;11.40;99.90;;;;;;4901716;29;20052;-85
2022/03/30 12:42:48;;;;;;;6.78;1.10;;;11.60;99.90;;;;;;4903067;29;20049;-85
2022/03/30 12:45:16;;;;;;;2.40;0.90;;;11.80;99.90;;;;;;4901939;29;20048;-84
2022/03/30 12:47:53;;;;;;;2.58;0.90;;;12.00;99.90;;;;;;4902091;29;20045;-86
2022/03/30 12:50:24;;;;;;;8.55;1.15;;;12.20;99.90;;;;;;4901682;29;20051;-84
2022/03/30 12:52:52;;;;;;;3.92;1.15;;;12.40;99.90;;;;;;4901779;29;20041;-84
2022/03/30 12:55:24;;;;;;;4.35;0.98;;;12.60;99.90;;;;;;4903197;29;20435;-86
2022/03/30 12:57:58;;;;;;;3.30;0.93;;;12.50;99.90;;;;;;4902570;29;20096;-82
2022/03/30 13:00:28;;;;;;;6.97;1.15;;;12.30;99.90;;;;;;4901472;29;20514;-84
2022/03/30 13:03:15;;;;;;;3.53;1.00;;;12.00;99.90;;;;;;4901192;29;20051;-86
2022/03/30 13:05:44;;;;;;;4.70;0.93;;;11.70;99.90;;;;;;4885956;29;20056;-85
2022/03/30 13:08:16;;;;;;;3.58;1.30;;;11.50;99.90;;;;;;4885856;29;20092;-86
2022/03/30 13:10:53;;;;;;;5.35;1.10;;;11.40;99.90;;;;;;4885894;29;20044;-83
2022/03/30 13:13:25;;;;;;;4.43;1.00;;;11.30;99.90;;;;;;4901361;29;20060;-85
2022/03/30 13:15:52;;;;;;;3.92;0.98;;;11.20;99.90;;;;;;4885913;29;20048;-84
2022/03/30 13:18:21;;;;;;;3.13;0.95;;;11.20;99.90;;;;;;4885697;29;20397;-86
2022/03/30 13:20:55;;;;;;;5.13;1.27;;;11.20;99.90;;;;;;4900744;29;20088;-87
2022/03/30 13:23:21;;;;;;;4.55;0.95;;;11.10;99.90;;;;;;4885136;29;20385;-87
2022/03/30 13:25:47;;;;;;;4.90;1.20;;;11.10;99.90;;;;;;4901094;29;20486;-87
2022/03/30 13:28:25;;;;;;;8.18;1.55;;;11.00;99.90;;;;;;4900792;29;20052;-86
2022/03/30 13:30:51;;;;;;;2.75;1.00;;;11.10;99.90;;;;;;4900656;29;20490;-85
2022/03/30 13:33:16;;;;;;;4.80;1.25;;;11.10;99.90;;;;;;4885281;29;20055;-86
2022/03/30 13:35:45;;;;;;;4.70;1.20;;;11.10;99.90;;;;;;4900062;29;20048;-87
2022/03/30 13:38:16;;;;;;;5.15;1.05;;;11.20;99.90;;;;;;4900762;29;20106;-86
2022/03/30 13:40:42;;;;;;;5.05;0.90;;;11.20;99.90;;;;;;4900437;29;20055;-86
2022/03/30 13:43:08;;;;;;;3.58;1.00;;;11.50;99.90;;;;;;4899669;29;20116;-85
2022/03/30 13:45:33;;;;;;;4.60;0.88;;;11.70;99.90;;;;;;4900090;29;20080;-85
2022/03/30 13:48:00;;;;;;;3.05;0.85;;;11.80;99.90;;;;;;4884449;29;20044;-84
2022/03/30 13:50:26;;;;;;;3.45;0.68;;;11.80;99.90;;;;;;4900177;29;20047;-83
2022/03/30 13:52:52;;;;;;;5.18;1.00;;;11.80;99.90;;;;;;4899684;29;20055;-82
2022/03/30 13:55:18;;;;;;;6.53;1.35;;;11.70;99.90;;;;;;4901134;29;20040;-84
2022/03/30 13:57:43;;;;;;;6.22;1.00;;;11.50;99.90;;;;;;4900053;29;20045;-86
2022/03/30 14:00:12;;;;;;;3.83;0.90;;;11.50;99.90;;;;;;4884166;29;20048;-85
2022/03/30 14:02:37;;;;;;;4.40;0.90;;;11.40;99.90;;;;;;4899128;29;20052;-84
2022/03/30 14:05:03;;;;;;;11.52;1.40;;;11.30;99.90;;;;;;4884349;29;20553;-86
2022/03/30 14:07:30;;;;;;;3.42;0.88;;;11.30;99.90;;;;;;4899957;29;20033;-83
2022/03/30 14:09:57;;;;;;;6.20;0.90;;;11.30;99.90;;;;;;4899928;29;20135;-83
2022/03/30 14:12:22;;;;;;;4.95;0.80;;;11.20;99.80;;;;;;4884068;29;20052;-83
2022/03/30 14:14:48;;;;;;;4.15;1.15;;;11.20;99.00;;;;;;4899865;29;20087;-84
2022/03/30 14:17:14;;;;;;;3.78;0.85;;;11.20;99.10;;;;;;4899648;29;20041;-83
2022/03/30 14:19:42;;;;;;;3.15;0.95;;;11.20;99.30;;;;;;4899510;29;20047;-83
2022/03/30 14:22:08;;;;;;;4.35;0.93;;;11.20;99.20;;;;;;4899438;29;20051;-83
2022/03/30 14:24:34;;;;;;;6.28;1.08;;;11.20;99.40;;;;;;4899402;29;20044;-83
2022/03/30 14:27:00;;;;;;;5.30;1.00;;;11.20;98.80;;;;;;4883074;29;20401;-85
2022/03/30 14:29:26;;;;;;;5.75;1.00;;;11.20;98.60;;;;;;4899046;29;20060;-85
2022/03/30 14:31:54;;;;;;;2.85;0.80;;;11.10;98.70;;;;;;4883973;29;20052;-84
2022/03/30 14:34:21;;;;;;;2.88;0.90;;;11.10;99.00;;;;;;4883712;29;20048;-84
2022/03/30 14:36:47;;;;;;;4.90;1.02;;;11.10;98.50;;;;;;4899148;29;20131;-83
2022/03/30 14:39:14;;;;;;;3.45;0.90;;;11.00;98.70;;;;;;4898784;29;20120;-85
2022/03/30 14:41:40;;;;;;;3.45;0.80;;;11.00;99.60;;;;;;4898898;29;20100;-83
2022/03/30 14:44:06;;;;;;;4.50;0.90;;;11.00;99.90;;;;;;4899205;29;20041;-84
2022/03/30 14:46:32;;;;;;;3.75;0.95;;;11.10;99.80;;;;;;4900121;29;20104;-84
2022/03/30 14:48:58;;;;;;;3.30;1.00;;;11.00;99.60;;;;;;4898756;29;20119;-84
2022/03/30 14:51:25;;;;;;;5.35;1.02;;;11.00;99.60;;;;;;4897216;29;20063;-85
2022/03/30 14:53:50;;;;;;;2.97;0.82;;;10.90;99.70;;;;;;4898653;29;20048;-85
2022/03/30 14:56:16;;;;;;;5.57;1.00;;;10.90;99.70;;;;;;4899273;29;20438;-83
2022/03/30 14:58:42;;;;;;;4.10;0.90;;;10.80;99.80;;;;;;4899304;29;20137;-84
2022/03/30 15:01:07;;;;;;;6.68;1.35;;;10.80;99.90;;;;;;4898832;29;20108;-84
2022/03/30 15:03:34;;;;;;;5.93;1.40;;;10.80;99.80;;;;;;4899241;29;20048;-83
2022/03/30 15:05:59;;;;;;;4.32;1.10;;;10.70;99.50;;;;;;4898681;29;20048;-86
2022/03/30 15:08:25;;;;;;;6.88;1.38;;;10.60;99.40;;;;;;4899041;29;20104;-83
2022/03/30 15:10:51;;;;;;;5.03;1.70;;;10.60;99.70;;;;;;4883511;29;20072;-83
2022/03/30 15:13:16;;;;;;;4.40;1.05;;;10.60;99.70;;;;;;4899068;29;20044;-84
2022/03/30 15:15:42;;;;;;;3.20;0.90;;;10.60;99.90;;;;;;4882868;29;20485;-84
2022/03/30 15:18:09;;;;;;;3.80;1.10;;;10.50;99.90;;;;;;4898968;29;20044;-84
2022/03/30 15:20:35;;;;;;;3.72;0.85;;;10.50;99.90;;;;;;4899996;29;20490;-84
2022/03/30 15:23:01;;;;;;;5.38;0.90;;;10.50;99.70;;;;;;4898994;29;20056;-83
2022/03/30 15:25:27;;;;;;;4.70;1.30;;;10.40;99.60;;;;;;4898474;29;20048;-84
2022/03/30 15:27:53;;;;;;;4.10;1.00;;;10.40;99.60;;;;;;4883310;29;20076;-85
2022/03/30 15:30:19;;;;;;;6.35;0.85;;;10.30;99.70;;;;;;4898749;29;20052;-85
2022/03/30 15:32:50;;;;;;;2.13;0.80;;;10.20;99.80;;;;;;4898775;29;20170;-83
2022/03/30 15:35:16;;;;;;;2.63;1.13;;;10.10;99.90;;;;;;4898991;29;20052;-83
2022/03/30 15:37:42;;;;;;;1.80;0.65;;;10.00;99.90;;;;;;4898809;29;20048;-84
2022/03/30 15:40:09;;;;;;;5.80;1.02;;;10.00;99.90;;;;;;4899558;29;20041;-85
2022/03/30 15:42:35;;;;;;;5.05;0.90;;;9.90;99.90;;;;;;4898372;29;20401;-83
2022/03/30 15:45:01;;;;;;;4.38;0.90;;;9.90;99.90;;;;;;4882799;29;20100;-84
2022/03/30 15:47:26;;;;;;;3.92;0.80;;;9.80;99.90;;;;;;4882692;29;20176;-83
2022/03/30 15:49:52;;;;;;;3.00;0.93;;;9.80;99.90;;;;;;4898424;29;20084;-84
2022/03/30 15:52:19;;;;;;;3.40;1.05;;;9.70;99.90;;;;;;4898714;29;20517;-84
2022/03/30 15:54:47;;;;;;;5.15;0.80;;;9.60;99.90;;;;;;4899830;29;20052;-84
2022/03/30 15:57:13;;;;;;;4.22;1.00;;;9.50;99.90;;;;;;4898519;29;20056;-82
2022/03/30 15:59:39;;;;;;;6.90;1.10;;;9.40;99.90;;;;;;4882944;29;20127;-83
2022/03/30 16:02:07;;;;;;;5.22;1.02;;;9.40;99.90;;;;;;4898923;29;20115;-83